createdAt,value
2022-12-27T00:01:46.185Z,10.75
2022-12-27T00:04:14.587Z,11.20
2022-12-27T00:06:42.865Z,11.88
2022-12-27T00:09:11.668Z,11.85
2022-12-27T00:11:40.515Z,12.18
2022-12-27T00:14:09.310Z,11.02
2022-12-27T00:16:37.983Z,10.65
2022-12-27T00:19:07.647Z,11.02
2022-12-27T00:21:36.704Z,11.73
2022-12-27T00:24:05.199Z,10.93
2022-12-27T00:26:35.928Z,11.75
2022-12-27T00:29:04.674Z,11.45
2022-12-27T00:31:34.019Z,11.00
2022-12-27T00:34:04.294Z,12.45
2022-12-27T00:36:33.969Z,11.73
2022-12-27T00:39:02.826Z,11.27
2022-12-27T00:41:31.389Z,11.80
2022-12-27T00:43:59.532Z,12.05
2022-12-27T00:46:27.755Z,11.60
2022-12-27T00:48:57.613Z,11.52
2022-12-27T00:51:26.638Z,11.25
2022-12-27T00:53:56.640Z,11.82
2022-12-27T00:56:27.781Z,11.82
2022-12-27T00:58:56.528Z,10.85
2022-12-27T01:01:26.463Z,10.98
2022-12-27T01:03:55.145Z,11.38
2022-12-27T01:06:25.917Z,11.02
2022-12-27T01:08:55.814Z,10.13
2022-12-27T01:11:24.456Z,11.07
2022-12-27T01:13:52.704Z,10.73
2022-12-27T01:16:25.956Z,10.48
2022-12-27T01:18:54.996Z,9.82
2022-12-27T01:21:24.996Z,10.48
2022-12-27T01:23:55.375Z,9.73
2022-12-27T01:26:24.669Z,9.73
2022-12-27T01:28:54.433Z,9.85
2022-12-27T01:31:24.795Z,9.93
2022-12-27T01:33:56.763Z,9.70
2022-12-27T01:36:26.360Z,9.63
2022-12-27T01:38:56.327Z,9.00
2022-12-27T01:41:44.227Z,9.43
2022-12-27T01:44:50.692Z,9.90
2022-12-27T01:47:33.682Z,8.88
2022-12-27T01:50:08.496Z,9.40
2022-12-27T01:52:42.233Z,8.63
2022-12-27T01:55:19.752Z,8.57
2022-12-27T01:57:49.739Z,9.20
2022-12-27T02:00:18.511Z,8.45
2022-12-27T02:02:47.093Z,8.35
2022-12-27T02:05:18.434Z,8.50
2022-12-27T02:07:59.851Z,7.95
2022-12-27T02:10:30.200Z,8.30
2022-12-27T02:12:59.440Z,7.55
2022-12-27T02:15:29.227Z,8.45
2022-12-27T02:17:57.873Z,7.72
2022-12-27T02:20:27.126Z,8.20
2022-12-27T02:23:45.362Z,7.80
2022-12-27T02:26:45.981Z,8.57
2022-12-27T02:29:31.072Z,8.35
2022-12-27T02:32:05.266Z,8.20
2022-12-27T02:34:42.918Z,7.78
2022-12-27T02:37:13.331Z,7.78
2022-12-27T02:39:45.082Z,7.65
2022-12-27T02:42:32.699Z,7.97
2022-12-27T02:45:20.618Z,8.00
2022-12-27T02:48:07.527Z,8.15
2022-12-27T02:51:06.071Z,7.30
2022-12-27T02:53:45.732Z,7.63
2022-12-27T02:56:44.892Z,7.93
2022-12-27T02:59:27.870Z,7.30
2022-12-27T03:02:25.350Z,8.43
2022-12-27T03:05:11.631Z,7.55
2022-12-27T03:07:49.114Z,9.05
2022-12-27T03:10:45.118Z,8.43
2022-12-27T03:13:45.339Z,9.70
2022-12-27T03:16:21.699Z,8.75
2022-12-27T03:19:03.967Z,9.52
2022-12-27T03:21:52.156Z,9.30
2022-12-27T03:24:42.272Z,8.60
2022-12-27T03:27:18.457Z,8.63
2022-12-27T03:30:10.841Z,8.18
2022-12-27T03:33:01.923Z,8.88
2022-12-27T03:35:35.658Z,6.13
2022-12-27T03:38:05.407Z,4.13
2022-12-27T03:41:06.070Z,4.03
2022-12-27T03:43:35.584Z,4.40
2022-12-27T03:46:38.945Z,4.07
2022-12-27T03:49:13.316Z,2.70
2022-12-27T03:51:46.169Z,2.00
2022-12-27T03:54:18.742Z,1.60
2022-12-27T03:56:46.998Z,1.52
2022-12-27T03:59:15.164Z,1.50
2022-12-27T04:01:43.489Z,1.47
2022-12-27T04:04:11.728Z,1.60
2022-12-27T04:06:39.915Z,1.30
2022-12-27T04:09:28.686Z,1.30
2022-12-27T04:12:15.585Z,1.40
2022-12-27T04:15:01.358Z,1.35
2022-12-27T04:17:47.218Z,1.70
2022-12-27T04:20:33.608Z,1.20
2022-12-27T04:23:19.725Z,1.20
2022-12-27T04:26:06.959Z,1.67
2022-12-27T04:28:53.473Z,1.30
2022-12-27T04:31:39.153Z,1.20
2022-12-27T04:34:24.651Z,1.63
2022-12-27T04:36:52.891Z,1.65
2022-12-27T04:39:21.025Z,1.30
2022-12-27T04:42:08.463Z,1.80
2022-12-27T04:44:54.024Z,1.87
2022-12-27T04:47:41.839Z,1.52
2022-12-27T04:50:32.829Z,1.70
2022-12-27T04:53:18.374Z,2.50
2022-12-27T04:55:46.579Z,1.45
2022-12-27T04:58:16.075Z,1.70
2022-12-27T05:01:12.338Z,1.90
2022-12-27T05:03:43.073Z,1.60
2022-12-27T05:06:11.727Z,1.65
2022-12-27T05:08:57.790Z,1.75
2022-12-27T05:11:44.341Z,1.40
2022-12-27T05:14:16.113Z,1.50
2022-12-27T05:16:45.846Z,1.80
2022-12-27T05:19:15.534Z,1.65
2022-12-27T05:22:06.139Z,1.85
2022-12-27T05:24:52.136Z,1.60
2022-12-27T05:27:20.619Z,1.92
2022-12-27T05:29:50.131Z,1.83
2022-12-27T05:32:18.337Z,1.80
2022-12-27T05:34:47.014Z,1.75
2022-12-27T05:37:15.292Z,1.60
2022-12-27T05:39:43.689Z,2.13
2022-12-27T05:42:11.882Z,2.55
2022-12-27T05:44:40.018Z,2.13
2022-12-27T05:47:09.635Z,1.83
2022-12-27T05:49:37.851Z,1.98
2022-12-27T05:52:06.204Z,1.65
2022-12-27T05:54:34.314Z,2.30
2022-12-27T05:57:02.635Z,2.00
2022-12-27T05:59:30.761Z,1.77
2022-12-27T06:01:59.109Z,2.28
2022-12-27T06:04:28.696Z,1.92
2022-12-27T06:06:56.928Z,2.33
2022-12-27T06:09:25.186Z,2.15
2022-12-27T06:11:53.571Z,2.83
2022-12-27T06:14:21.839Z,2.40
2022-12-27T06:16:50.314Z,2.53
2022-12-27T06:19:18.536Z,2.20
2022-12-27T06:21:48.104Z,2.10
2022-12-27T06:24:17.206Z,2.60
2022-12-27T06:26:45.508Z,2.33
2022-12-27T06:29:14.062Z,2.33
2022-12-27T06:31:42.499Z,2.13
2022-12-27T06:34:11.942Z,2.33
2022-12-27T06:36:40.188Z,2.15
2022-12-27T06:39:09.711Z,2.00
2022-12-27T06:41:37.992Z,2.30
2022-12-27T06:44:06.371Z,2.23
2022-12-27T06:46:34.594Z,2.83
2022-12-27T06:49:03.903Z,2.50
2022-12-27T06:51:32.097Z,2.60
2022-12-27T06:54:00.227Z,2.67
2022-12-27T06:56:29.877Z,2.47
2022-12-27T06:58:58.015Z,2.65
2022-12-27T07:01:28.321Z,2.22
2022-12-27T07:03:59.109Z,2.80
2022-12-27T07:06:29.522Z,2.42
2022-12-27T07:08:59.066Z,2.42
2022-12-27T07:11:29.354Z,2.60
2022-12-27T07:13:57.601Z,2.97
2022-12-27T07:16:27.463Z,2.28
2022-12-27T07:18:57.273Z,2.53
2022-12-27T07:21:27.462Z,2.60
2022-12-27T07:23:56.047Z,2.75
2022-12-27T07:26:27.940Z,2.35
2022-12-27T07:28:59.018Z,2.97
2022-12-27T07:31:30.068Z,2.40
2022-12-27T07:33:59.704Z,2.83
2022-12-27T07:36:30.692Z,2.70
2022-12-27T07:38:59.022Z,3.15
2022-12-27T07:41:27.371Z,3.40
2022-12-27T07:43:57.057Z,3.50
2022-12-27T07:46:26.675Z,3.10
2022-12-27T07:48:56.209Z,2.92
2022-12-27T07:51:25.267Z,2.72
2022-12-27T07:53:54.174Z,2.78
2022-12-27T07:56:26.410Z,2.55
2022-12-27T07:58:55.854Z,2.63
2022-12-27T08:01:26.933Z,2.72
2022-12-27T08:03:55.851Z,3.00
2022-12-27T08:06:26.267Z,2.58
2022-12-27T08:08:55.448Z,2.92
2022-12-27T08:11:23.557Z,3.25
2022-12-27T08:13:51.812Z,2.97
2022-12-27T08:16:24.474Z,2.85
2022-12-27T08:18:54.319Z,2.72
2022-12-27T08:21:23.089Z,2.93
2022-12-27T08:23:51.374Z,2.72
2022-12-27T08:26:19.591Z,2.70
2022-12-27T08:28:47.844Z,3.03
2022-12-27T08:31:15.998Z,3.05
2022-12-27T08:33:44.603Z,2.92
2022-12-27T08:36:45.326Z,3.45
2022-12-27T08:39:03.065Z,2.90
2022-12-27T08:41:31.250Z,3.65
2022-12-27T08:43:59.490Z,3.78
2022-12-27T08:46:27.687Z,3.58
2022-12-27T08:48:55.999Z,2.90
2022-12-27T08:51:34.267Z,3.40
2022-12-27T08:54:08.777Z,3.10
2022-12-27T08:56:37.311Z,3.40
2022-12-27T08:59:06.235Z,3.35
2022-12-27T09:01:34.537Z,3.20
2022-12-27T09:04:02.800Z,3.13
2022-12-27T09:06:32.316Z,2.75
2022-12-27T09:09:01.497Z,3.58
2022-12-27T09:11:31.512Z,3.17
2022-12-27T09:14:00.936Z,3.30
2022-12-27T09:16:29.913Z,2.85
2022-12-27T09:19:00.051Z,3.28
2022-12-27T09:21:31.708Z,3.03
2022-12-27T09:24:01.405Z,3.97
2022-12-27T09:26:30.962Z,3.83
2022-12-27T09:29:00.153Z,3.95
2022-12-27T09:31:29.084Z,2.97
2022-12-27T09:33:58.055Z,3.35
2022-12-27T09:36:28.269Z,3.00
2022-12-27T09:38:57.673Z,3.20
2022-12-27T09:44:44.468Z,3.40
2022-12-27T09:47:15.938Z,3.15
2022-12-27T09:49:47.527Z,3.60
2022-12-27T09:52:20.047Z,3.22
2022-12-27T09:55:04.354Z,3.75
2022-12-27T09:57:39.915Z,3.50
2022-12-27T10:00:15.816Z,4.45
2022-12-27T10:02:45.459Z,3.60
2022-12-27T10:05:22.122Z,3.70
2022-12-27T10:08:23.101Z,4.07
2022-12-27T10:10:59.996Z,3.45
2022-12-27T10:13:43.270Z,3.88
2022-12-27T10:16:23.040Z,4.03
2022-12-27T10:19:06.372Z,4.25
2022-12-27T10:21:38.529Z,4.13
2022-12-27T10:24:18.647Z,3.03
2022-12-27T10:26:46.814Z,3.75
2022-12-27T10:29:22.016Z,4.57
2022-12-27T10:31:50.898Z,4.40
2022-12-27T10:34:24.492Z,4.00
2022-12-27T10:36:53.961Z,5.03
2022-12-27T10:39:27.728Z,3.78
2022-12-27T10:42:03.675Z,4.80
2022-12-27T10:44:33.238Z,4.70
2022-12-27T10:47:01.535Z,4.80
2022-12-27T10:49:31.391Z,4.22
2022-12-27T10:52:08.278Z,4.85
2022-12-27T10:54:49.730Z,5.50
2022-12-27T10:57:25.262Z,5.00
2022-12-27T11:00:19.839Z,4.03
2022-12-27T11:02:52.299Z,5.13
2022-12-27T11:05:26.276Z,4.45
2022-12-27T11:07:54.900Z,4.10
2022-12-27T11:10:24.751Z,4.22
2022-12-27T11:12:58.026Z,3.97
2022-12-27T11:15:28.838Z,4.63
2022-12-27T11:17:58.682Z,4.05
2022-12-27T11:20:30.255Z,3.90
2022-12-27T11:23:03.649Z,3.85
2022-12-27T11:25:32.659Z,3.83
2022-12-27T11:28:04.089Z,3.65
2022-12-27T11:30:36.367Z,3.47
2022-12-27T11:33:09.112Z,3.20
2022-12-27T11:35:48.721Z,3.83
2022-12-27T11:38:25.359Z,3.25
2022-12-27T11:41:03.561Z,3.65
2022-12-27T11:43:36.355Z,2.83
2022-12-27T11:46:12.851Z,3.30
2022-12-27T11:48:45.255Z,3.22
2022-12-27T11:51:44.535Z,3.35
2022-12-27T11:54:31.897Z,3.60
2022-12-27T11:57:10.260Z,3.70
2022-12-27T11:59:51.849Z,3.55
2022-12-27T12:02:35.000Z,3.78
2022-12-27T12:05:26.729Z,3.75
2022-12-27T12:08:14.456Z,3.13
2022-12-27T12:10:50.572Z,3.38
2022-12-27T12:13:35.304Z,3.83
2022-12-27T12:16:41.914Z,3.45
2022-12-27T12:19:25.887Z,3.13
2022-12-27T12:22:11.139Z,3.05
2022-12-27T12:25:08.870Z,2.97
2022-12-27T12:27:46.134Z,2.95
2022-12-27T12:30:40.557Z,3.28
2022-12-27T12:33:27.127Z,3.05
2022-12-27T12:36:15.340Z,3.83
2022-12-27T12:38:50.830Z,3.53
2022-12-27T12:41:48.171Z,2.90
2022-12-27T12:44:41.541Z,3.33
2022-12-27T12:47:19.396Z,3.65
2022-12-27T12:49:59.437Z,3.42
2022-12-27T12:52:44.231Z,3.47
2022-12-27T12:55:34.917Z,3.85
2022-12-27T12:58:18.838Z,4.35
2022-12-27T13:01:14.249Z,3.53
2022-12-27T13:04:27.712Z,3.90
2022-12-27T13:07:23.289Z,4.47
2022-12-27T13:10:18.119Z,4.03
2022-12-27T13:12:53.070Z,4.03
2022-12-27T13:15:30.298Z,4.35
2022-12-27T13:18:09.144Z,3.85
2022-12-27T13:20:54.774Z,4.28
2022-12-27T13:23:35.236Z,4.53
2022-12-27T13:26:26.072Z,4.30
2022-12-27T13:29:09.148Z,4.65
2022-12-27T13:31:48.878Z,4.60
2022-12-27T13:34:30.906Z,4.95
2022-12-27T13:37:16.111Z,4.80
2022-12-27T13:40:01.808Z,5.85
2022-12-27T13:42:55.247Z,5.18
2022-12-27T13:45:47.652Z,5.50
2022-12-27T13:48:41.802Z,5.53
2022-12-27T13:51:35.335Z,5.78
2022-12-27T13:54:46.228Z,5.68
2022-12-27T13:57:31.708Z,5.95
2022-12-27T14:00:17.329Z,6.43
2022-12-27T14:03:16.593Z,5.78
2022-12-27T14:06:18.404Z,6.00
2022-12-27T14:09:08.826Z,5.70
2022-12-27T14:11:48.675Z,5.20
2022-12-27T14:14:20.250Z,4.77
2022-12-27T14:17:04.437Z,6.43
2022-12-27T14:20:00.736Z,5.70
2022-12-27T14:22:47.458Z,6.07
2022-12-27T14:26:08.599Z,6.28
2022-12-27T14:29:02.523Z,6.28
2022-12-27T14:32:08.537Z,6.22
2022-12-27T14:35:09.533Z,6.07
2022-12-27T14:37:53.869Z,6.05
2022-12-27T14:40:56.670Z,5.75
2022-12-27T14:44:16.712Z,6.03
2022-12-27T14:47:07.149Z,5.55
2022-12-27T14:50:05.208Z,5.22
2022-12-27T14:53:01.458Z,5.53
2022-12-27T14:55:57.186Z,5.50
2022-12-27T14:58:42.172Z,5.47
2022-12-27T15:01:19.183Z,5.32
2022-12-27T15:04:41.206Z,4.93
2022-12-27T15:07:27.506Z,4.65
2022-12-27T15:10:07.707Z,5.10
2022-12-27T15:12:45.092Z,5.40
2022-12-27T15:15:39.863Z,5.22
2022-12-27T15:18:26.407Z,5.57
2022-12-27T15:21:06.831Z,5.28
2022-12-27T15:23:42.618Z,5.43
2022-12-27T15:26:21.803Z,5.50
2022-12-27T15:29:05.209Z,5.80
2022-12-27T15:31:50.310Z,5.50
2022-12-27T15:34:38.219Z,5.32
2022-12-27T15:37:07.372Z,5.60
2022-12-27T15:39:49.789Z,5.47
2022-12-27T15:42:48.829Z,5.03
2022-12-27T15:45:33.789Z,4.88
2022-12-27T15:48:30.669Z,6.15
2022-12-27T15:51:08.648Z,5.50
2022-12-27T15:53:57.053Z,5.65
2022-12-27T15:56:44.077Z,5.38
2022-12-27T15:59:41.422Z,5.90
2022-12-27T16:02:29.363Z,5.53
2022-12-27T16:05:03.353Z,5.47
2022-12-27T16:07:47.142Z,5.60
2022-12-27T16:10:47.945Z,6.10
2022-12-27T16:13:41.729Z,5.55
2022-12-27T16:16:57.629Z,5.43
2022-12-27T16:19:51.899Z,5.68
2022-12-27T16:22:34.937Z,5.35
2022-12-27T16:25:30.365Z,5.00
2022-12-27T16:28:03.634Z,5.45
2022-12-27T16:30:36.937Z,5.40
2022-12-27T16:33:06.942Z,6.18
2022-12-27T16:35:35.278Z,5.45
2022-12-27T16:38:04.644Z,5.43
2022-12-27T16:40:50.588Z,5.70
2022-12-27T16:43:51.505Z,5.88
2022-12-27T16:46:46.483Z,4.88
2022-12-27T16:49:33.017Z,5.80
2022-12-27T16:52:16.841Z,4.88
2022-12-27T16:54:55.542Z,5.53
2022-12-27T16:57:42.102Z,5.25
2022-12-27T17:00:36.635Z,5.90
2022-12-27T17:03:31.833Z,5.32
2022-12-27T17:06:31.224Z,5.97
2022-12-27T17:09:33.829Z,5.15
2022-12-27T17:12:08.032Z,6.00
2022-12-27T17:14:38.329Z,5.45
2022-12-27T17:17:15.286Z,5.22
2022-12-27T17:19:49.249Z,5.63
2022-12-27T17:22:19.811Z,5.28
2022-12-27T17:24:49.282Z,5.50
2022-12-27T17:27:28.422Z,5.80
2022-12-27T17:30:17.721Z,5.10
2022-12-27T17:33:07.741Z,5.32
2022-12-27T17:35:47.973Z,4.60
2022-12-27T17:38:28.796Z,4.38
2022-12-27T17:41:10.439Z,5.50
2022-12-27T17:44:15.227Z,4.22
2022-12-27T17:46:50.352Z,5.07
2022-12-27T17:49:19.208Z,5.07
2022-12-27T17:52:01.815Z,5.20
2022-12-27T17:54:49.381Z,4.85
2022-12-27T17:57:37.870Z,5.07
2022-12-27T18:00:08.071Z,5.45
2022-12-27T18:02:41.520Z,5.00
2022-12-27T18:05:14.700Z,5.65
2022-12-27T18:07:45.032Z,5.07
2022-12-27T18:10:22.788Z,5.38
2022-12-27T18:12:53.736Z,5.88
2022-12-27T18:15:23.531Z,5.80
2022-12-27T18:17:54.512Z,6.07
2022-12-27T18:20:30.463Z,5.68
2022-12-27T18:23:19.661Z,5.43
2022-12-27T18:25:58.360Z,6.05
2022-12-27T18:28:32.929Z,5.55
2022-12-27T18:31:08.683Z,6.25
2022-12-27T18:33:42.951Z,5.88
2022-12-27T18:36:15.611Z,5.35
2022-12-27T18:38:46.303Z,5.53
2022-12-27T18:41:18.423Z,5.70
2022-12-27T18:43:49.164Z,5.90
2022-12-27T18:46:22.425Z,5.25
2022-12-27T18:48:50.798Z,4.88
2022-12-27T18:51:18.957Z,5.70
2022-12-27T18:53:47.255Z,4.97
2022-12-27T18:56:30.555Z,4.90
2022-12-27T18:59:04.529Z,5.47
2022-12-27T19:01:40.895Z,5.63
2022-12-27T19:04:27.944Z,5.07
2022-12-27T19:07:05.321Z,5.03
2022-12-27T19:09:38.740Z,4.90
2022-12-27T19:12:26.992Z,4.90
2022-12-27T19:14:55.883Z,5.32
2022-12-27T19:17:27.028Z,4.57
2022-12-27T19:19:58.060Z,5.20
2022-12-27T19:22:42.290Z,5.40
2022-12-27T19:25:22.191Z,4.63
2022-12-27T19:28:21.511Z,5.50
2022-12-27T19:31:05.693Z,5.05
2022-12-27T19:33:36.689Z,5.30
2022-12-27T19:36:10.284Z,5.22
2022-12-27T19:38:47.564Z,5.28
2022-12-27T19:41:17.187Z,4.80
2022-12-27T19:43:47.656Z,5.32
2022-12-27T19:46:19.183Z,5.38
2022-12-27T19:49:07.576Z,5.07
2022-12-27T19:51:37.430Z,4.70
2022-12-27T19:54:09.038Z,4.93
2022-12-27T19:56:37.348Z,5.03
2022-12-27T19:59:07.245Z,5.13
2022-12-27T20:01:36.060Z,5.75
2022-12-27T20:04:04.289Z,5.32
2022-12-27T20:06:32.642Z,4.80
2022-12-27T20:09:00.840Z,5.43
2022-12-27T20:11:29.058Z,4.72
2022-12-27T20:13:57.279Z,4.97
2022-12-27T20:16:27.099Z,5.30
2022-12-27T20:18:55.299Z,5.53
2022-12-27T20:21:23.611Z,5.85
2022-12-27T20:23:51.885Z,5.85
2022-12-27T20:26:22.102Z,5.13
2022-12-27T20:28:51.133Z,5.45
2022-12-27T20:31:21.703Z,5.38
2022-12-27T20:33:54.423Z,5.20
2022-12-27T20:36:23.283Z,5.85
2022-12-27T20:38:51.653Z,5.10
2022-12-27T20:41:23.048Z,4.88
2022-12-27T20:43:55.787Z,5.53
2022-12-27T20:46:24.961Z,5.03
2022-12-27T20:48:56.085Z,5.20
2022-12-27T20:51:27.323Z,5.13
2022-12-27T20:53:57.258Z,4.88
2022-12-27T20:56:26.322Z,5.28
2022-12-27T20:58:54.901Z,5.15
2022-12-27T21:01:25.917Z,4.97
2022-12-27T21:03:57.131Z,5.38
2022-12-27T21:06:27.601Z,5.28
2022-12-27T21:08:57.744Z,4.93
2022-12-27T21:11:28.419Z,5.50
2022-12-27T21:13:56.851Z,4.65
2022-12-27T21:16:26.425Z,5.00
2022-12-27T21:18:57.205Z,5.13
2022-12-27T21:21:28.779Z,5.00
2022-12-27T21:23:57.975Z,5.32
2022-12-27T21:26:28.282Z,4.50
2022-12-27T21:28:57.353Z,5.05
2022-12-27T21:31:26.047Z,5.00
2022-12-27T21:33:54.376Z,4.47
2022-12-27T21:36:25.851Z,4.57
2022-12-27T21:38:55.739Z,5.07
2022-12-27T21:41:25.266Z,5.10
2022-12-27T21:43:54.142Z,5.35
2022-12-27T21:46:24.801Z,5.20
2022-12-27T21:48:56.742Z,5.00
2022-12-27T21:51:27.378Z,5.00
2022-12-27T21:53:56.041Z,5.22
2022-12-27T21:56:25.023Z,4.80
2022-12-27T21:58:55.428Z,5.13
2022-12-27T22:01:25.689Z,4.90
2022-12-27T22:03:55.051Z,5.50
2022-12-27T22:06:26.590Z,5.00
2022-12-27T22:08:57.332Z,5.07
2022-12-27T22:11:27.079Z,5.40
2022-12-27T22:13:55.488Z,5.18
2022-12-27T22:16:25.131Z,5.13
2022-12-27T22:18:56.013Z,4.68
2022-12-27T22:21:28.391Z,4.95
2022-12-27T22:23:58.314Z,5.07
2022-12-27T22:26:28.531Z,4.35
2022-12-27T22:28:57.372Z,4.82
2022-12-27T22:31:27.166Z,4.55
2022-12-27T22:33:55.438Z,4.75
2022-12-27T22:36:26.779Z,4.82
2022-12-27T22:38:57.100Z,4.63
2022-12-27T22:41:27.292Z,5.10
2022-12-27T22:43:57.185Z,5.15
2022-12-27T22:46:25.952Z,5.00
2022-12-27T22:48:55.777Z,5.32
2022-12-27T22:51:27.075Z,5.15
2022-12-27T22:53:55.937Z,4.97
2022-12-27T22:56:26.470Z,5.13
2022-12-27T22:58:54.856Z,5.22
2022-12-27T23:01:27.746Z,4.85
2022-12-27T23:03:56.756Z,5.45
2022-12-27T23:06:27.051Z,5.38
2022-12-27T23:08:56.051Z,5.25
2022-12-27T23:11:26.658Z,4.72
2022-12-27T23:13:56.921Z,4.45
2022-12-27T23:16:25.115Z,4.95
2022-12-27T23:18:53.791Z,5.32
2022-12-27T23:21:24.510Z,5.38
2022-12-27T23:23:54.593Z,4.95
2022-12-27T23:26:24.592Z,5.20
2022-12-27T23:28:53.882Z,5.00
2022-12-27T23:31:24.146Z,4.95
2022-12-27T23:33:53.454Z,4.63
2022-12-27T23:36:21.837Z,5.05
2022-12-27T23:38:50.621Z,5.63
2022-12-27T23:41:22.371Z,5.18
2022-12-27T23:43:53.162Z,5.10
2022-12-27T23:46:25.007Z,5.57
2022-12-27T23:48:53.605Z,5.57
2022-12-27T23:51:22.645Z,4.97
2022-12-27T23:53:51.250Z,5.25
2022-12-27T23:56:23.237Z,4.90
2022-12-27T23:58:53.102Z,5.63
